sensor_id;sensor_type;location;lat;lon;timestamp;pressure;altitude;pressure_sealevel;temperature;humidity
3250;BME280;1637;42.020;23.992;2023-03-29T00:00:18;92909.94;;;0.78;40.92
3250;BME280;1637;42.020;23.992;2023-03-29T00:02:45;92866.72;;;0.39;40.75
3250;BME280;1637;42.020;23.992;2023-03-29T00:05:13;92905.78;;;0.64;40.83
3250;BME280;1637;42.020;23.992;2023-03-29T00:07:40;92923.97;;;0.54;41.17
3250;BME280;1637;42.020;23.992;2023-03-29T00:10:10;92927.19;;;0.75;40.60
3250;BME280;1637;42.020;23.992;2023-03-29T00:12:38;92929.84;;;0.63;39.74
3250;BME280;1637;42.020;23.992;2023-03-29T00:15:07;92937.75;;;0.63;40.77
3250;BME280;1637;42.020;23.992;2023-03-29T00:17:34;92949.50;;;0.65;42.00
3250;BME280;1637;42.020;23.992;2023-03-29T00:20:01;92941.75;;;0.57;42.46
3250;BME280;1637;42.020;23.992;2023-03-29T00:22:29;92944.16;;;0.50;42.99
3250;BME280;1637;42.020;23.992;2023-03-29T00:24:56;92946.31;;;0.32;44.03
3250;BME280;1637;42.020;23.992;2023-03-29T00:27:24;92946.84;;;0.38;44.09
3250;BME280;1637;42.020;23.992;2023-03-29T00:29:51;92945.72;;;0.79;44.02
3250;BME280;1637;42.020;23.992;2023-03-29T00:32:18;92938.34;;;0.56;43.97
3250;BME280;1637;42.020;23.992;2023-03-29T00:34:45;92942.50;;;0.57;44.94
3250;BME280;1637;42.020;23.992;2023-03-29T00:37:15;92921.13;;;0.47;43.04
3250;BME280;1637;42.020;23.992;2023-03-29T00:39:43;92926.88;;;0.37;41.40
3250;BME280;1637;42.020;23.992;2023-03-29T00:42:11;92920.25;;;0.43;40.86
3250;BME280;1637;42.020;23.992;2023-03-29T00:44:55;92914.66;;;0.44;39.72
3250;BME280;1637;42.020;23.992;2023-03-29T00:47:28;92878.38;;;0.25;39.49
3250;BME280;1637;42.020;23.992;2023-03-29T00:49:59;92919.13;;;0.56;39.22
3250;BME280;1637;42.020;23.992;2023-03-29T00:52:29;92911.34;;;0.47;39.88
3250;BME280;1637;42.020;23.992;2023-03-29T00:54:59;92906.94;;;0.51;39.52
3250;BME280;1637;42.020;23.992;2023-03-29T00:57:29;92916.28;;;0.49;39.87
3250;BME280;1637;42.020;23.992;2023-03-29T00:59:59;92917.38;;;0.48;40.03
3250;BME280;1637;42.020;23.992;2023-03-29T01:02:30;92922.38;;;0.37;40.05
3250;BME280;1637;42.020;23.992;2023-03-29T01:05:01;92921.28;;;0.26;40.08
3250;BME280;1637;42.020;23.992;2023-03-29T01:07:33;92911.84;;;0.37;39.72
3250;BME280;1637;42.020;23.992;2023-03-29T01:10:06;92913.25;;;0.34;40.14
3250;BME280;1637;42.020;23.992;2023-03-29T01:12:39;92917.38;;;0.60;39.87
3250;BME280;1637;42.020;23.992;2023-03-29T01:15:10;92914.28;;;0.58;39.54
3250;BME280;1637;42.020;23.992;2023-03-29T01:17:38;92932.25;;;0.40;39.22
3250;BME280;1637;42.020;23.992;2023-03-29T01:20:10;92926.59;;;0.54;39.13
3250;BME280;1637;42.020;23.992;2023-03-29T01:22:54;92921.16;;;0.34;39.65
3250;BME280;1637;42.020;23.992;2023-03-29T01:25:32;92918.97;;;0.37;40.17
3250;BME280;1637;42.020;23.992;2023-03-29T01:28:07;92920.16;;;0.39;40.68
3250;BME280;1637;42.020;23.992;2023-03-29T01:30:39;92928.69;;;0.48;40.27
3250;BME280;1637;42.020;23.992;2023-03-29T01:33:11;92920.16;;;0.39;40.76
3250;BME280;1637;42.020;23.992;2023-03-29T01:35:42;92938.63;;;0.27;40.80
3250;BME280;1637;42.020;23.992;2023-03-29T01:38:13;92916.69;;;0.23;40.07
3250;BME280;1637;42.020;23.992;2023-03-29T01:40:41;92916.00;;;0.38;39.75
3250;BME280;1637;42.020;23.992;2023-03-29T01:43:20;92934.72;;;0.49;39.53
3250;BME280;1637;42.020;23.992;2023-03-29T01:45:53;92928.69;;;0.48;37.66
3250;BME280;1637;42.020;23.992;2023-03-29T01:48:26;92945.16;;;0.57;38.53
3250;BME280;1637;42.020;23.992;2023-03-29T01:50:57;92940.44;;;0.51;39.15
3250;BME280;1637;42.020;23.992;2023-03-29T01:53:32;92957.44;;;0.53;38.34
3250;BME280;1637;42.020;23.992;2023-03-29T01:56:05;92947.38;;;0.43;37.86
3250;BME280;1637;42.020;23.992;2023-03-29T01:58:37;92945.00;;;0.26;38.13
3250;BME280;1637;42.020;23.992;2023-03-29T02:01:07;92944.41;;;0.45;38.02
3250;BME280;1637;42.020;23.992;2023-03-29T02:03:36;92940.03;;;0.37;37.79
3250;BME280;1637;42.020;23.992;2023-03-29T02:06:08;92940.81;;;0.37;38.41
3250;BME280;1637;42.020;23.992;2023-03-29T02:08:38;92946.53;;;0.27;38.58
3250;BME280;1637;42.020;23.992;2023-03-29T02:11:05;92905.09;;;0.12;38.79
3250;BME280;1637;42.020;23.992;2023-03-29T02:13:34;92928.41;;;0.25;38.31
3250;BME280;1637;42.020;23.992;2023-03-29T02:16:02;92939.28;;;0.24;38.85
3250;BME280;1637;42.020;23.992;2023-03-29T02:18:30;92940.50;;;0.26;38.55
3250;BME280;1637;42.020;23.992;2023-03-29T02:20:58;92939.16;;;0.32;38.19
3250;BME280;1637;42.020;23.992;2023-03-29T02:23:27;92953.00;;;0.29;39.28
3250;BME280;1637;42.020;23.992;2023-03-29T02:25:59;92956.41;;;0.30;39.18
3250;BME280;1637;42.020;23.992;2023-03-29T02:28:27;92948.97;;;0.20;39.25
3250;BME280;1637;42.020;23.992;2023-03-29T02:31:01;92971.00;;;0.27;39.49
3250;BME280;1637;42.020;23.992;2023-03-29T02:33:33;92956.41;;;0.30;38.71
3250;BME280;1637;42.020;23.992;2023-03-29T02:36:06;92961.44;;;0.23;39.64
3250;BME280;1637;42.020;23.992;2023-03-29T02:38:35;92968.38;;;0.27;39.79
3250;BME280;1637;42.020;23.992;2023-03-29T02:41:04;92975.06;;;0.25;40.17
3250;BME280;1637;42.020;23.992;2023-03-29T02:43:31;92962.69;;;0.13;39.71
3250;BME280;1637;42.020;23.992;2023-03-29T02:46:02;92980.78;;;0.15;40.71
3250;BME280;1637;42.020;23.992;2023-03-29T02:48:30;92976.47;;;0.22;40.04
3250;BME280;1637;42.020;23.992;2023-03-29T02:51:00;92942.84;;;-0.09;40.73
3250;BME280;1637;42.020;23.992;2023-03-29T02:53:31;92965.00;;;0.15;40.93
3250;BME280;1637;42.020;23.992;2023-03-29T02:56:00;92975.84;;;0.13;41.36
3250;BME280;1637;42.020;23.992;2023-03-29T02:58:28;92984.19;;;0.15;40.83
3250;BME280;1637;42.020;23.992;2023-03-29T03:00:58;92993.19;;;0.14;40.95
3250;BME280;1637;42.020;23.992;2023-03-29T03:03:26;92981.88;;;0.14;41.65
3250;BME280;1637;42.020;23.992;2023-03-29T03:05:53;92982.84;;;0.21;40.76
3250;BME280;1637;42.020;23.992;2023-03-29T03:08:20;92998.56;;;0.06;41.07
3250;BME280;1637;42.020;23.992;2023-03-29T03:10:47;92986.16;;;0.18;40.62
3250;BME280;1637;42.020;23.992;2023-03-29T03:13:13;92991.31;;;0.03;41.33
3250;BME280;1637;42.020;23.992;2023-03-29T03:15:40;92981.66;;;-0.18;41.47
3250;BME280;1637;42.020;23.992;2023-03-29T03:18:07;92988.47;;;-0.05;41.74
3250;BME280;1637;42.020;23.992;2023-03-29T03:20:36;93004.50;;;-0.10;42.20
3250;BME280;1637;42.020;23.992;2023-03-29T03:23:04;93000.31;;;0.14;40.86
3250;BME280;1637;42.020;23.992;2023-03-29T03:25:33;93022.50;;;0.13;42.06
3250;BME280;1637;42.020;23.992;2023-03-29T03:28:00;92997.88;;;0.21;42.20
3250;BME280;1637;42.020;23.992;2023-03-29T03:30:27;93010.44;;;-0.01;41.17
3250;BME280;1637;42.020;23.992;2023-03-29T03:32:54;93012.84;;;0.17;41.20
3250;BME280;1637;42.020;23.992;2023-03-29T03:35:21;93014.16;;;-0.02;41.78
3250;BME280;1637;42.020;23.992;2023-03-29T03:37:49;93016.34;;;0.09;41.29
3250;BME280;1637;42.020;23.992;2023-03-29T03:40:16;93000.22;;;-0.02;41.17
3250;BME280;1637;42.020;23.992;2023-03-29T03:42:43;93016.34;;;0.09;41.54
3250;BME280;1637;42.020;23.992;2023-03-29T03:45:10;93023.59;;;0.12;40.60
3250;BME280;1637;42.020;23.992;2023-03-29T03:47:37;93014.41;;;-0.40;43.44
3250;BME280;1637;42.020;23.992;2023-03-29T03:50:05;93024.78;;;-1.00;48.62
3250;BME280;1637;42.020;23.992;2023-03-29T03:52:33;92979.03;;;-1.62;51.07
3250;BME280;1637;42.020;23.992;2023-03-29T03:55:02;93012.19;;;-1.49;50.82
3250;BME280;1637;42.020;23.992;2023-03-29T03:57:29;93014.59;;;-1.44;50.16
3250;BME280;1637;42.020;23.992;2023-03-29T03:59:57;93012.47;;;-1.71;51.83
3250;BME280;1637;42.020;23.992;2023-03-29T04:02:24;93023.88;;;-1.96;52.75
3250;BME280;1637;42.020;23.992;2023-03-29T04:04:51;93029.31;;;-2.01;53.67
3250;BME280;1637;42.020;23.992;2023-03-29T04:07:19;93029.97;;;-1.84;52.98
3250;BME280;1637;42.020;23.992;2023-03-29T04:09:45;93036.00;;;-1.83;52.96
3250;BME280;1637;42.020;23.992;2023-03-29T04:12:14;93029.13;;;-1.96;53.20
3250;BME280;1637;42.020;23.992;2023-03-29T04:14:41;93030.06;;;-1.92;53.28
3250;BME280;1637;42.020;23.992;2023-03-29T04:17:08;93013.91;;;-1.82;52.85
3250;BME280;1637;42.020;23.992;2023-03-29T04:19:34;93020.53;;;-2.05;53.33
3250;BME280;1637;42.020;23.992;2023-03-29T04:22:01;93028.06;;;-1.95;53.28
3250;BME280;1637;42.020;23.992;2023-03-29T04:24:28;93043.06;;;-1.75;52.86
3250;BME280;1637;42.020;23.992;2023-03-29T04:26:55;93044.91;;;-1.67;52.56
3250;BME280;1637;42.020;23.992;2023-03-29T04:29:23;93045.16;;;-1.60;52.04
3250;BME280;1637;42.020;23.992;2023-03-29T04:31:50;93042.81;;;-1.32;51.83
3250;BME280;1637;42.020;23.992;2023-03-29T04:34:17;93043.16;;;-1.00;49.53
3250;BME280;1637;42.020;23.992;2023-03-29T04:36:43;93050.16;;;-0.51;48.44
3250;BME280;1637;42.020;23.992;2023-03-29T04:39:10;93048.44;;;-0.35;48.91
3250;BME280;1637;42.020;23.992;2023-03-29T04:41:38;93030.19;;;-0.52;48.41
3250;BME280;1637;42.020;23.992;2023-03-29T04:44:05;93062.06;;;-0.08;46.87
3250;BME280;1637;42.020;23.992;2023-03-29T04:46:34;93059.69;;;-0.46;45.80
3250;BME280;1637;42.020;23.992;2023-03-29T04:49:03;93055.09;;;-0.37;45.71
3250;BME280;1637;42.020;23.992;2023-03-29T04:51:30;93058.69;;;-0.54;44.90
3250;BME280;1637;42.020;23.992;2023-03-29T04:53:57;93059.56;;;-0.50;46.88
3250;BME280;1637;42.020;23.992;2023-03-29T04:56:24;93060.91;;;0.14;45.35
3250;BME280;1637;42.020;23.992;2023-03-29T04:58:51;93064.50;;;0.21;43.47
3250;BME280;1637;42.020;23.992;2023-03-29T05:01:18;93077.97;;;1.77;41.39
3250;BME280;1637;42.020;23.992;2023-03-29T05:03:46;93085.59;;;2.57;39.58
3250;BME280;1637;42.020;23.992;2023-03-29T05:06:13;93074.72;;;2.27;38.26
3250;BME280;1637;42.020;23.992;2023-03-29T05:08:41;93087.66;;;3.75;38.27
3250;BME280;1637;42.020;23.992;2023-03-29T05:11:09;93091.00;;;5.09;35.24
3250;BME280;1637;42.020;23.992;2023-03-29T05:13:38;93088.13;;;5.51;34.32
3250;BME280;1637;42.020;23.992;2023-03-29T05:16:05;93085.66;;;5.99;33.32
3250;BME280;1637;42.020;23.992;2023-03-29T05:18:33;93134.50;;;6.21;32.51
3250;BME280;1637;42.020;23.992;2023-03-29T05:21:01;93095.81;;;5.90;32.50
3250;BME280;1637;42.020;23.992;2023-03-29T05:23:28;93102.72;;;5.35;32.71
3250;BME280;1637;42.020;23.992;2023-03-29T05:25:55;93097.94;;;5.47;33.92
3250;BME280;1637;42.020;23.992;2023-03-29T05:28:22;93057.69;;;5.79;32.48
3250;BME280;1637;42.020;23.992;2023-03-29T05:30:58;93089.91;;;4.38;34.86
3250;BME280;1637;42.020;23.992;2023-03-29T05:33:25;93090.22;;;4.56;37.68
3250;BME280;1637;42.020;23.992;2023-03-29T05:35:58;93091.41;;;5.11;36.64
3250;BME280;1637;42.020;23.992;2023-03-29T05:38:26;93097.28;;;4.71;37.28
3250;BME280;1637;42.020;23.992;2023-03-29T05:40:54;93093.72;;;3.95;37.06
3250;BME280;1637;42.020;23.992;2023-03-29T05:43:21;93110.13;;;3.82;38.12
3250;BME280;1637;42.020;23.992;2023-03-29T05:45:47;93076.91;;;2.40;39.68
3250;BME280;1637;42.020;23.992;2023-03-29T05:48:14;93081.59;;;2.16;36.78
3250;BME280;1637;42.020;23.992;2023-03-29T05:50:45;93083.84;;;3.15;34.54
3250;BME280;1637;42.020;23.992;2023-03-29T05:53:12;93094.13;;;3.97;33.33
3250;BME280;1637;42.020;23.992;2023-03-29T05:55:41;93096.88;;;6.19;30.92
3250;BME280;1637;42.020;23.992;2023-03-29T05:58:09;93094.56;;;5.50;33.10
3250;BME280;1637;42.020;23.992;2023-03-29T06:00:36;93103.69;;;6.16;31.89
3250;BME280;1637;42.020;23.992;2023-03-29T06:03:04;93107.44;;;5.48;30.37
3250;BME280;1637;42.020;23.992;2023-03-29T06:05:32;93086.78;;;4.10;35.48
3250;BME280;1637;42.020;23.992;2023-03-29T06:07:59;93078.53;;;5.43;32.58
3250;BME280;1637;42.020;23.992;2023-03-29T06:10:26;93102.34;;;7.36;30.20
3250;BME280;1637;42.020;23.992;2023-03-29T06:12:54;93113.78;;;8.37;29.21
3250;BME280;1637;42.020;23.992;2023-03-29T06:15:21;93113.09;;;8.90;29.23
3250;BME280;1637;42.020;23.992;2023-03-29T06:17:48;93091.59;;;6.26;32.75
3250;BME280;1637;42.020;23.992;2023-03-29T06:20:15;93113.69;;;7.22;30.54
3250;BME280;1637;42.020;23.992;2023-03-29T06:22:42;93114.84;;;8.04;27.94
3250;BME280;1637;42.020;23.992;2023-03-29T06:25:11;93105.97;;;6.59;27.97
3250;BME280;1637;42.020;23.992;2023-03-29T06:27:40;93077.81;;;6.54;26.23
3250;BME280;1637;42.020;23.992;2023-03-29T06:30:09;93094.78;;;6.83;26.39
3250;BME280;1637;42.020;23.992;2023-03-29T06:32:36;93106.44;;;7.19;27.07
3250;BME280;1637;42.020;23.992;2023-03-29T06:35:03;93102.50;;;7.02;26.83
3250;BME280;1637;42.020;23.992;2023-03-29T06:37:30;93102.16;;;7.07;26.36
3250;BME280;1637;42.020;23.992;2023-03-29T06:39:58;93086.56;;;6.54;27.03
3250;BME280;1637;42.020;23.992;2023-03-29T06:42:25;93097.78;;;6.34;26.55
3250;BME280;1637;42.020;23.992;2023-03-29T06:44:52;93068.72;;;5.47;27.76
3250;BME280;1637;42.020;23.992;2023-03-29T06:47:21;93081.59;;;5.45;27.15
3250;BME280;1637;42.020;23.992;2023-03-29T06:49:53;93090.63;;;6.45;27.35
3250;BME280;1637;42.020;23.992;2023-03-29T06:52:20;93101.63;;;6.40;27.40
3250;BME280;1637;42.020;23.992;2023-03-29T06:54:47;93083.47;;;5.75;28.07
3250;BME280;1637;42.020;23.992;2023-03-29T06:57:13;93088.66;;;6.35;28.29
3250;BME280;1637;42.020;23.992;2023-03-29T06:59:40;93107.16;;;6.61;28.36
3250;BME280;1637;42.020;23.992;2023-03-29T07:02:07;93088.63;;;5.61;26.85
3250;BME280;1637;42.020;23.992;2023-03-29T07:04:38;93097.66;;;6.67;28.01
3250;BME280;1637;42.020;23.992;2023-03-29T07:07:06;93081.13;;;6.03;28.97
3250;BME280;1637;42.020;23.992;2023-03-29T07:09:44;93090.63;;;5.41;29.92
3250;BME280;1637;42.020;23.992;2023-03-29T07:12:18;93102.75;;;6.39;28.81
3250;BME280;1637;42.020;23.992;2023-03-29T07:14:45;93118.72;;;7.38;28.05
3250;BME280;1637;42.020;23.992;2023-03-29T07:17:12;93121.69;;;7.26;27.01
3250;BME280;1637;42.020;23.992;2023-03-29T07:19:42;93114.59;;;9.02;25.61
3250;BME280;1637;42.020;23.992;2023-03-29T07:22:09;93118.19;;;7.14;27.55
3250;BME280;1637;42.020;23.992;2023-03-29T07:24:36;93118.25;;;7.29;26.95
3250;BME280;1637;42.020;23.992;2023-03-29T07:27:03;93134.22;;;7.98;26.05
3250;BME280;1637;42.020;23.992;2023-03-29T07:29:29;93142.09;;;9.13;25.70
3250;BME280;1637;42.020;23.992;2023-03-29T07:31:56;93150.75;;;9.95;25.81
3250;BME280;1637;42.020;23.992;2023-03-29T07:34:23;93151.34;;;10.38;24.79
3250;BME280;1637;42.020;23.992;2023-03-29T07:36:51;93150.69;;;10.06;25.81
3250;BME280;1637;42.020;23.992;2023-03-29T07:39:19;93154.34;;;11.10;27.04
3250;BME280;1637;42.020;23.992;2023-03-29T07:41:46;93154.38;;;11.51;24.99
3250;BME280;1637;42.020;23.992;2023-03-29T07:44:13;93146.03;;;10.27;25.60
3250;BME280;1637;42.020;23.992;2023-03-29T07:46:42;93149.31;;;8.77;26.92
3250;BME280;1637;42.020;23.992;2023-03-29T07:49:09;93132.75;;;8.14;27.86
3250;BME280;1637;42.020;23.992;2023-03-29T07:51:36;93133.56;;;7.39;27.98
3250;BME280;1637;42.020;23.992;2023-03-29T07:54:04;93126.78;;;6.94;29.42
3250;BME280;1637;42.020;23.992;2023-03-29T07:56:31;93132.88;;;7.52;28.07
3250;BME280;1637;42.020;23.992;2023-03-29T07:58:57;93139.38;;;8.49;27.67
3250;BME280;1637;42.020;23.992;2023-03-29T08:01:24;93145.91;;;8.87;26.61
3250;BME280;1637;42.020;23.992;2023-03-29T08:03:51;93140.94;;;8.78;26.29
3250;BME280;1637;42.020;23.992;2023-03-29T08:06:18;93124.44;;;8.30;26.37
3250;BME280;1637;42.020;23.992;2023-03-29T08:08:45;93114.97;;;6.47;28.47
3250;BME280;1637;42.020;23.992;2023-03-29T08:11:13;93133.28;;;8.59;24.98
3250;BME280;1637;42.020;23.992;2023-03-29T08:13:40;93118.41;;;8.76;27.92
3250;BME280;1637;42.020;23.992;2023-03-29T08:16:07;93115.00;;;8.93;25.98
3250;BME280;1637;42.020;23.992;2023-03-29T08:18:34;93120.31;;;9.18;26.14
3250;BME280;1637;42.020;23.992;2023-03-29T08:21:01;93122.56;;;8.38;26.40
3250;BME280;1637;42.020;23.992;2023-03-29T08:23:28;93128.47;;;10.19;26.03
3250;BME280;1637;42.020;23.992;2023-03-29T08:25:55;93119.97;;;9.12;27.03
3250;BME280;1637;42.020;23.992;2023-03-29T08:28:23;93114.97;;;8.54;27.03
3250;BME280;1637;42.020;23.992;2023-03-29T08:30:50;93119.53;;;8.43;26.51
3250;BME280;1637;42.020;23.992;2023-03-29T08:33:17;93119.91;;;8.38;25.98
3250;BME280;1637;42.020;23.992;2023-03-29T08:35:43;93123.00;;;9.18;26.55
3250;BME280;1637;42.020;23.992;2023-03-29T08:38:10;93111.31;;;10.03;24.11
3250;BME280;1637;42.020;23.992;2023-03-29T08:40:38;93102.75;;;9.31;26.50
3250;BME280;1637;42.020;23.992;2023-03-29T08:43:24;93107.38;;;8.84;26.93
3250;BME280;1637;42.020;23.992;2023-03-29T08:46:04;93104.31;;;9.04;24.98
3250;BME280;1637;42.020;23.992;2023-03-29T08:48:34;93110.03;;;8.77;26.67
3250;BME280;1637;42.020;23.992;2023-03-29T08:51:13;93110.19;;;10.00;24.81
3250;BME280;1637;42.020;23.992;2023-03-29T08:53:45;93105.50;;;10.29;24.09
3250;BME280;1637;42.020;23.992;2023-03-29T08:56:15;93100.88;;;10.37;23.94
3250;BME280;1637;42.020;23.992;2023-03-29T08:58:45;93106.97;;;9.04;24.49
3250;BME280;1637;42.020;23.992;2023-03-29T09:01:13;93109.66;;;8.89;24.49
3250;BME280;1637;42.020;23.992;2023-03-29T09:03:43;93094.75;;;8.46;27.55
3250;BME280;1637;42.020;23.992;2023-03-29T09:06:12;93101.25;;;8.52;25.68
3250;BME280;1637;42.020;23.992;2023-03-29T09:08:42;93088.94;;;8.08;26.26
3250;BME280;1637;42.020;23.992;2023-03-29T09:11:29;93104.69;;;8.70;26.80
3250;BME280;1637;42.020;23.992;2023-03-29T09:14:23;93104.97;;;9.61;25.59
3250;BME280;1637;42.020;23.992;2023-03-29T09:16:59;93107.75;;;8.93;24.18
3250;BME280;1637;42.020;23.992;2023-03-29T09:19:33;93084.00;;;8.10;25.16
3250;BME280;1637;42.020;23.992;2023-03-29T09:22:08;93096.03;;;7.69;27.78
3250;BME280;1637;42.020;23.992;2023-03-29T09:24:51;93100.50;;;8.87;25.82
3250;BME280;1637;42.020;23.992;2023-03-29T09:27:26;93091.72;;;8.51;25.58
3250;BME280;1637;42.020;23.992;2023-03-29T09:30:02;93098.00;;;7.82;25.06
3250;BME280;1637;42.020;23.992;2023-03-29T09:32:36;93092.25;;;7.77;25.96
3250;BME280;1637;42.020;23.992;2023-03-29T09:35:12;93082.13;;;8.36;26.49
3250;BME280;1637;42.020;23.992;2023-03-29T09:37:43;93111.56;;;8.96;25.81
3250;BME280;1637;42.020;23.992;2023-03-29T09:40:13;93109.47;;;9.89;25.28
3250;BME280;1637;42.020;23.992;2023-03-29T09:42:43;93095.66;;;10.01;22.78
3250;BME280;1637;42.020;23.992;2023-03-29T09:45:11;93115.53;;;10.77;22.91
3250;BME280;1637;42.020;23.992;2023-03-29T09:47:41;93108.09;;;9.17;25.34
3250;BME280;1637;42.020;23.992;2023-03-29T09:50:12;93087.13;;;9.05;26.25
3250;BME280;1637;42.020;23.992;2023-03-29T09:52:42;93093.56;;;9.50;25.48
3250;BME280;1637;42.020;23.992;2023-03-29T09:55:12;93077.53;;;8.29;24.64
3250;BME280;1637;42.020;23.992;2023-03-29T09:57:40;93060.69;;;7.93;24.69
3250;BME280;1637;42.020;23.992;2023-03-29T10:00:10;93097.41;;;8.46;24.81
3250;BME280;1637;42.020;23.992;2023-03-29T10:02:39;93077.56;;;8.36;24.81
3250;BME280;1637;42.020;23.992;2023-03-29T10:05:07;93091.28;;;8.31;25.77
3250;BME280;1637;42.020;23.992;2023-03-29T10:07:39;93073.78;;;8.76;24.32
3250;BME280;1637;42.020;23.992;2023-03-29T10:10:13;93079.44;;;8.28;24.70
3250;BME280;1637;42.020;23.992;2023-03-29T10:12:47;93096.59;;;8.24;25.07
3250;BME280;1637;42.020;23.992;2023-03-29T10:15:18;93082.94;;;8.79;24.16
3250;BME280;1637;42.020;23.992;2023-03-29T10:17:46;93081.34;;;9.49;24.49
3250;BME280;1637;42.020;23.992;2023-03-29T10:20:16;93098.47;;;9.69;24.05
3250;BME280;1637;42.020;23.992;2023-03-29T10:22:48;93082.56;;;8.52;23.55
3250;BME280;1637;42.020;23.992;2023-03-29T10:25:24;93088.28;;;8.82;21.28
3250;BME280;1637;42.020;23.992;2023-03-29T10:27:53;93091.34;;;9.13;24.23
3250;BME280;1637;42.020;23.992;2023-03-29T10:30:24;93086.16;;;9.89;22.23
3250;BME280;1637;42.020;23.992;2023-03-29T10:32:55;93089.63;;;9.83;21.95
3250;BME280;1637;42.020;23.992;2023-03-29T10:35:28;93088.84;;;9.79;23.12
3250;BME280;1637;42.020;23.992;2023-03-29T10:37:57;93090.00;;;9.85;20.47
3250;BME280;1637;42.020;23.992;2023-03-29T10:40:29;93068.88;;;10.01;21.06
3250;BME280;1637;42.020;23.992;2023-03-29T10:42:58;93072.97;;;9.15;21.14
3250;BME280;1637;42.020;23.992;2023-03-29T10:45:28;93043.22;;;8.27;22.90
3250;BME280;1637;42.020;23.992;2023-03-29T10:47:57;93041.28;;;8.17;22.97
3250;BME280;1637;42.020;23.992;2023-03-29T10:50:25;93055.34;;;7.97;23.88
3250;BME280;1637;42.020;23.992;2023-03-29T10:52:56;93028.78;;;8.46;23.66
3250;BME280;1637;42.020;23.992;2023-03-29T10:55:31;93061.53;;;8.25;24.80
3250;BME280;1637;42.020;23.992;2023-03-29T10:58:06;93038.63;;;8.32;24.74
3250;BME280;1637;42.020;23.992;2023-03-29T11:00:47;93058.50;;;8.38;24.38
3250;BME280;1637;42.020;23.992;2023-03-29T11:03:33;93047.47;;;8.75;24.42
3250;BME280;1637;42.020;23.992;2023-03-29T11:06:11;93032.53;;;8.20;24.42
3250;BME280;1637;42.020;23.992;2023-03-29T11:08:53;93041.75;;;8.58;23.01
3250;BME280;1637;42.020;23.992;2023-03-29T11:11:42;93074.53;;;9.02;23.63
3250;BME280;1637;42.020;23.992;2023-03-29T11:14:19;93043.88;;;9.56;22.22
3250;BME280;1637;42.020;23.992;2023-03-29T11:16:56;93043.25;;;9.09;22.59
3250;BME280;1637;42.020;23.992;2023-03-29T11:19:51;93043.28;;;8.70;23.46
3250;BME280;1637;42.020;23.992;2023-03-29T11:22:23;93004.72;;;8.28;24.30
3250;BME280;1637;42.020;23.992;2023-03-29T11:25:19;93030.31;;;8.44;23.28
3250;BME280;1637;42.020;23.992;2023-03-29T11:27:54;93021.91;;;8.35;24.29
3250;BME280;1637;42.020;23.992;2023-03-29T11:30:29;93020.38;;;8.26;23.70
3250;BME280;1637;42.020;23.992;2023-03-29T11:33:09;93017.28;;;8.07;24.82
3250;BME280;1637;42.020;23.992;2023-03-29T11:35:49;93027.97;;;8.17;24.64
3250;BME280;1637;42.020;23.992;2023-03-29T11:38:23;93034.13;;;8.60;24.47
3250;BME280;1637;42.020;23.992;2023-03-29T11:40:57;93035.25;;;8.81;23.33
3250;BME280;1637;42.020;23.992;2023-03-29T11:43:27;93017.69;;;8.76;22.97
3250;BME280;1637;42.020;23.992;2023-03-29T11:46:01;93025.72;;;8.44;23.06
3250;BME280;1637;42.020;23.992;2023-03-29T11:48:33;93024.88;;;8.01;22.64
3250;BME280;1637;42.020;23.992;2023-03-29T11:51:06;93029.13;;;8.31;23.79
3250;BME280;1637;42.020;23.992;2023-03-29T11:53:43;92992.53;;;8.10;23.21
3250;BME280;1637;42.020;23.992;2023-03-29T11:56:15;93011.22;;;8.24;23.87
3250;BME280;1637;42.020;23.992;2023-03-29T11:58:47;93023.06;;;8.62;23.28
3250;BME280;1637;42.020;23.992;2023-03-29T12:01:21;93015.41;;;8.25;23.92
3250;BME280;1637;42.020;23.992;2023-03-29T12:03:54;93027.63;;;8.44;24.36
3250;BME280;1637;42.020;23.992;2023-03-29T12:06:25;93049.38;;;8.78;24.78
3250;BME280;1637;42.020;23.992;2023-03-29T12:08:55;93032.84;;;9.43;22.91
3250;BME280;1637;42.020;23.992;2023-03-29T12:11:28;93041.56;;;9.61;22.65
3250;BME280;1637;42.020;23.992;2023-03-29T12:13:58;93037.78;;;9.55;21.79
3250;BME280;1637;42.020;23.992;2023-03-29T12:16:31;93041.00;;;8.65;22.37
3250;BME280;1637;42.020;23.992;2023-03-29T12:19:04;93039.06;;;8.83;23.67
3250;BME280;1637;42.020;23.992;2023-03-29T12:21:32;92988.28;;;7.84;23.07
3250;BME280;1637;42.020;23.992;2023-03-29T12:24:01;93025.69;;;8.19;23.59
3250;BME280;1637;42.020;23.992;2023-03-29T12:27:02;93026.50;;;8.45;23.49
3250;BME280;1637;42.020;23.992;2023-03-29T12:29:42;93048.63;;;8.70;22.32
3250;BME280;1637;42.020;23.992;2023-03-29T12:32:26;93026.84;;;8.86;22.77
3250;BME280;1637;42.020;23.992;2023-03-29T12:35:09;93044.03;;;8.53;21.90
3250;BME280;1637;42.020;23.992;2023-03-29T12:37:45;93050.91;;;8.68;22.98
3250;BME280;1637;42.020;23.992;2023-03-29T12:40:18;93047.09;;;8.90;23.38
3250;BME280;1637;42.020;23.992;2023-03-29T12:42:46;93044.81;;;8.50;24.35
3250;BME280;1637;42.020;23.992;2023-03-29T12:45:17;93046.31;;;8.40;23.57
3250;BME280;1637;42.020;23.992;2023-03-29T12:47:48;93032.59;;;8.49;22.70
3250;BME280;1637;42.020;23.992;2023-03-29T12:50:25;93062.69;;;8.95;22.74
3250;BME280;1637;42.020;23.992;2023-03-29T12:53:02;93062.31;;;8.97;23.40
3250;BME280;1637;42.020;23.992;2023-03-29T12:55:32;93066.53;;;8.91;24.54
3250;BME280;1637;42.020;23.992;2023-03-29T12:58:02;93092.41;;;9.40;23.95
3250;BME280;1637;42.020;23.992;2023-03-29T13:00:42;93084.00;;;9.38;21.97
3250;BME280;1637;42.020;23.992;2023-03-29T13:03:28;93082.53;;;9.30;23.29
3250;BME280;1637;42.020;23.992;2023-03-29T13:06:03;93065.00;;;9.08;21.98
3250;BME280;1637;42.020;23.992;2023-03-29T13:08:34;93075.72;;;8.93;22.33
3250;BME280;1637;42.020;23.992;2023-03-29T13:11:02;93049.31;;;8.10;22.30
3250;BME280;1637;42.020;23.992;2023-03-29T13:13:32;93078.72;;;8.39;22.95
3250;BME280;1637;42.020;23.992;2023-03-29T13:16:12;93058.53;;;8.55;22.64
3250;BME280;1637;42.020;23.992;2023-03-29T13:18:52;93060.44;;;8.76;22.64
3250;BME280;1637;42.020;23.992;2023-03-29T13:21:30;93070.34;;;8.65;23.45
3250;BME280;1637;42.020;23.992;2023-03-29T13:24:08;93072.25;;;8.79;23.57
3250;BME280;1637;42.020;23.992;2023-03-29T13:26:48;93083.72;;;8.86;22.70
3250;BME280;1637;42.020;23.992;2023-03-29T13:29:33;93076.84;;;8.85;21.75
3250;BME280;1637;42.020;23.992;2023-03-29T13:32:15;93078.34;;;9.11;23.37
3250;BME280;1637;42.020;23.992;2023-03-29T13:34:49;93082.94;;;8.89;22.34
3250;BME280;1637;42.020;23.992;2023-03-29T13:37:30;93083.25;;;9.41;22.57